Time;durP1;ratioP1;P1;durP2;ratioP2;P2;SDS_P1;SDS_P2;PMS_P1;PMS_P2;Temp;Humidity;BMP_temperature;BMP_pressure;BME280_temperature;BME280_humidity;BME280_pressure;Samples;Min_cycle;Max_cycle;Signal;HPM_P1;HPM_P2
2021/03/20 00:01:36;;;;;;;2.63;1.80;;;-2.00;99.90;;;;;;5074578;28;20501;-61
2021/03/20 00:04:04;;;;;;;2.53;1.60;;;-2.00;99.90;;;;;;5075105;28;20286;-62
2021/03/20 00:06:34;;;;;;;4.43;1.80;;;-2.00;99.90;;;;;;5081804;28;20253;-63
2021/03/20 00:09:05;;;;;;;3.77;1.50;;;-2.10;99.90;;;;;;5085021;28;20261;-62
2021/03/20 00:11:32;;;;;;;1.97;1.70;;;-2.10;99.90;;;;;;5080884;28;20623;-63
2021/03/20 00:13:59;;;;;;;2.20;1.50;;;-2.00;99.90;;;;;;5074856;28;20202;-63
2021/03/20 00:16:27;;;;;;;3.10;1.60;;;-1.90;99.90;;;;;;5074596;28;20209;-64
2021/03/20 00:18:54;;;;;;;4.40;1.57;;;-2.00;99.90;;;;;;5074673;28;20730;-62
2021/03/20 00:21:22;;;;;;;3.27;1.70;;;-2.00;99.90;;;;;;5075312;28;20209;-63
2021/03/20 00:23:48;;;;;;;2.87;1.60;;;-2.00;99.90;;;;;;5095099;28;20246;-63
2021/03/20 00:26:16;;;;;;;2.97;1.90;;;-2.10;99.90;;;;;;5094808;28;20206;-62
2021/03/20 00:28:43;;;;;;;2.63;1.93;;;-2.10;99.90;;;;;;5092628;28;20296;-62
2021/03/20 00:31:12;;;;;;;1.87;1.60;;;-2.20;99.90;;;;;;5084800;28;20279;-63
2021/03/20 00:33:41;;;;;;;2.83;1.73;;;-2.30;99.90;;;;;;5077076;28;20288;-63
2021/03/20 00:36:09;;;;;;;1.80;1.60;;;-2.30;99.90;;;;;;5083865;28;20325;-62
2021/03/20 00:38:39;;;;;;;2.53;1.83;;;-2.30;99.90;;;;;;5085669;28;20207;-63
2021/03/20 00:41:07;;;;;;;2.53;1.90;;;-2.20;99.90;;;;;;5074411;28;20267;-62
2021/03/20 00:43:35;;;;;;;2.40;1.70;;;-2.10;99.90;;;;;;5084827;28;20301;-63
2021/03/20 00:46:03;;;;;;;2.73;1.70;;;-2.20;99.90;;;;;;5076015;28;20251;-62
2021/03/20 00:48:32;;;;;;;3.97;1.73;;;-2.20;99.90;;;;;;5074412;28;20242;-61
2021/03/20 00:51:01;;;;;;;3.30;2.03;;;-2.30;99.90;;;;;;5074273;28;20274;-62
2021/03/20 00:53:30;;;;;;;2.27;1.80;;;-2.30;99.90;;;;;;5074159;28;20267;-62
2021/03/20 00:55:58;;;;;;;5.03;2.20;;;-2.40;99.90;;;;;;5074251;28;20297;-62
2021/03/20 00:58:28;;;;;;;3.63;2.00;;;-2.40;99.90;;;;;;5074185;28;20235;-62
2021/03/20 01:00:57;;;;;;;3.80;2.17;;;-2.20;99.90;;;;;;5073459;28;20297;-62
2021/03/20 01:03:24;;;;;;;5.13;2.10;;;-2.20;99.90;;;;;;5073817;28;20666;-62
2021/03/20 01:05:51;;;;;;;5.03;2.20;;;-2.10;99.90;;;;;;5074073;28;20210;-62
2021/03/20 01:08:19;;;;;;;5.93;2.70;;;-2.10;99.90;;;;;;5074042;28;20207;-62
2021/03/20 01:10:46;;;;;;;4.73;2.50;;;-2.20;99.90;;;;;;5073596;28;20541;-62
2021/03/20 01:13:15;;;;;;;3.50;2.20;;;-2.10;99.90;;;;;;5073821;28;20291;-62
2021/03/20 01:15:42;;;;;;;3.97;2.07;;;-2.10;99.90;;;;;;5073476;28;20298;-62
2021/03/20 01:18:10;;;;;;;3.27;2.00;;;-2.10;99.90;;;;;;5073814;28;20291;-63
2021/03/20 01:20:38;;;;;;;3.13;2.10;;;-2.10;99.90;;;;;;5073591;28;20265;-63
2021/03/20 01:23:05;;;;;;;4.03;2.30;;;-2.20;99.90;;;;;;5088154;28;20294;-63
2021/03/20 01:25:32;;;;;;;3.23;2.37;;;-2.20;99.90;;;;;;5093535;28;20701;-62
2021/03/20 01:27:59;;;;;;;3.47;2.13;;;-2.20;99.90;;;;;;5093790;28;20327;-63
2021/03/20 01:30:31;;;;;;;4.67;2.20;;;-2.20;99.90;;;;;;5092764;28;20233;-63
2021/03/20 01:32:58;;;;;;;2.93;1.97;;;-2.20;99.90;;;;;;5093471;28;20189;-64
2021/03/20 01:35:27;;;;;;;2.70;2.40;;;-2.10;99.90;;;;;;5093762;28;20286;-62
2021/03/20 01:37:55;;;;;;;5.07;2.47;;;-2.10;99.90;;;;;;5093563;28;20233;-62
2021/03/20 01:40:24;;;;;;;3.60;2.10;;;-2.10;99.90;;;;;;5098915;28;20247;-63
2021/03/20 01:42:52;;;;;;;5.10;2.63;;;-2.20;99.90;;;;;;5099974;28;20206;-62
2021/03/20 01:45:23;;;;;;;5.03;3.23;;;-2.20;99.90;;;;;;5093808;28;20206;-61
2021/03/20 01:47:55;;;;;;;5.33;2.67;;;-2.20;99.90;;;;;;5093388;28;20223;-63
2021/03/20 01:50:30;;;;;;;5.07;2.10;;;-2.10;99.90;;;;;;5093233;28;20299;-61
2021/03/20 01:53:00;;;;;;;5.77;2.67;;;-2.30;99.90;;;;;;5093220;28;20218;-63
2021/03/20 01:55:28;;;;;;;4.43;2.33;;;-2.30;99.90;;;;;;5092916;28;20293;-62
2021/03/20 01:57:58;;;;;;;3.90;2.50;;;-2.30;99.90;;;;;;5093697;28;20256;-66
2021/03/20 02:00:30;;;;;;;4.43;2.80;;;-2.30;99.90;;;;;;5092364;28;20725;-66
2021/03/20 02:03:01;;;;;;;4.50;2.83;;;-2.30;99.90;;;;;;5092934;28;20192;-63
2021/03/20 02:05:31;;;;;;;5.20;3.07;;;-2.30;99.90;;;;;;5093315;28;20285;-62
2021/03/20 02:08:00;;;;;;;3.43;2.50;;;-2.10;99.90;;;;;;5093596;28;20248;-62
2021/03/20 02:10:31;;;;;;;3.43;2.43;;;-2.10;99.90;;;;;;5092897;28;20738;-62
2021/03/20 02:13:04;;;;;;;7.17;2.50;;;-2.10;99.90;;;;;;5093267;28;20237;-63
2021/03/20 02:15:34;;;;;;;4.93;2.53;;;-2.00;99.90;;;;;;5092769;28;20218;-62
2021/03/20 02:18:10;;;;;;;3.40;2.57;;;-2.00;99.90;;;;;;5093045;28;20191;-62
2021/03/20 02:21:03;;;;;;;5.60;2.67;;;-1.90;99.90;;;;;;5093128;28;20616;-62
2021/03/20 02:24:08;;;;;;;3.47;2.40;;;-1.90;99.90;;;;;;5092696;28;20707;-64
2021/03/20 02:27:11;;;;;;;3.93;2.27;;;-1.80;99.90;;;;;;5093061;28;20286;-62
2021/03/20 02:30:12;;;;;;;4.50;2.70;;;-1.80;99.90;;;;;;5092448;28;20302;-61
2021/03/20 02:33:07;;;;;;;2.83;2.30;;;-1.80;99.90;;;;;;5092770;28;20214;-62
2021/03/20 02:35:40;;;;;;;4.50;2.70;;;-1.70;99.90;;;;;;5092522;28;20199;-63
2021/03/20 02:38:17;;;;;;;2.73;2.27;;;-1.70;99.90;;;;;;5092579;28;20191;-63
2021/03/20 02:40:54;;;;;;;4.23;2.40;;;-1.90;99.90;;;;;;5092540;28;20693;-63
2021/03/20 02:43:30;;;;;;;5.27;2.33;;;-1.80;99.90;;;;;;5092798;28;20194;-66
2021/03/20 02:46:04;;;;;;;3.47;2.50;;;-1.70;99.90;;;;;;5092181;28;20186;-66
2021/03/20 02:48:41;;;;;;;3.27;2.23;;;-1.60;99.90;;;;;;5092809;28;20259;-65
2021/03/20 02:51:11;;;;;;;5.30;2.57;;;-1.70;99.90;;;;;;5092772;28;20297;-65
2021/03/20 02:53:43;;;;;;;6.20;2.73;;;-1.60;99.90;;;;;;5095790;28;20281;-65
2021/03/20 02:56:16;;;;;;;5.20;2.60;;;-1.70;99.90;;;;;;5096906;28;20312;-65
2021/03/20 02:58:48;;;;;;;4.97;2.43;;;-1.60;99.90;;;;;;5096516;28;20262;-66
2021/03/20 03:01:19;;;;;;;5.83;2.60;;;-1.60;99.90;;;;;;5096660;28;20182;-65
2021/03/20 03:03:49;;;;;;;3.50;2.10;;;-1.60;99.90;;;;;;5096457;28;20198;-67
2021/03/20 03:06:25;;;;;;;5.17;2.20;;;-1.60;99.90;;;;;;5096748;28;20254;-66
2021/03/20 03:08:57;;;;;;;4.30;2.30;;;-1.60;99.90;;;;;;5096783;28;20242;-66
2021/03/20 03:11:31;;;;;;;3.83;2.00;;;-1.60;99.90;;;;;;5096695;28;20293;-66
2021/03/20 03:14:03;;;;;;;4.00;2.20;;;-1.60;99.90;;;;;;5096251;28;20223;-65
2021/03/20 03:16:35;;;;;;;3.27;2.10;;;-1.60;99.90;;;;;;5096337;28;20222;-65
2021/03/20 03:19:08;;;;;;;3.13;2.33;;;-1.60;99.90;;;;;;5096308;28;20202;-65
2021/03/20 03:21:40;;;;;;;3.37;2.20;;;-1.80;99.90;;;;;;5096552;28;20210;-65
2021/03/20 03:24:09;;;;;;;2.97;2.13;;;-1.90;99.90;;;;;;5096421;28;20181;-65
2021/03/20 03:26:40;;;;;;;2.43;2.07;;;-1.90;99.90;;;;;;5095990;28;20249;-65
2021/03/20 03:29:14;;;;;;;4.80;2.50;;;-1.90;99.90;;;;;;5095241;28;20644;-66
2021/03/20 03:31:48;;;;;;;4.33;2.10;;;-2.00;99.90;;;;;;5096044;28;20202;-65
2021/03/20 03:34:20;;;;;;;5.67;2.20;;;-1.90;99.90;;;;;;5095810;28;20196;-66
2021/03/20 03:36:55;;;;;;;4.47;2.03;;;-1.80;99.90;;;;;;5095783;28;20223;-66
2021/03/20 03:39:29;;;;;;;4.03;2.50;;;-1.60;99.90;;;;;;5095661;28;20766;-66
2021/03/20 03:41:56;;;;;;;3.60;2.00;;;-1.60;99.90;;;;;;5096069;28;20179;-66
2021/03/20 03:44:23;;;;;;;2.97;2.40;;;-1.50;99.90;;;;;;5095212;28;20294;-65
2021/03/20 03:46:50;;;;;;;3.77;2.17;;;-1.50;99.90;;;;;;5095950;28;20302;-66
2021/03/20 03:49:24;;;;;;;3.17;2.20;;;-1.50;99.90;;;;;;5096182;28;20301;-65
2021/03/20 03:51:52;;;;;;;6.13;2.10;;;-1.50;99.90;;;;;;5095822;28;20261;-66
2021/03/20 03:54:20;;;;;;;5.23;2.03;;;-1.60;99.90;;;;;;5095511;28;20292;-65
2021/03/20 03:57:19;;;;;;;9.80;2.70;;;-1.50;99.90;;;;;;5095803;28;20230;-65
2021/03/20 03:59:59;;;;;;;4.17;2.20;;;-1.60;99.90;;;;;;5058820;28;20203;-66
2021/03/20 04:03:01;;;;;;;3.20;1.80;;;-1.60;99.90;;;;;;5095869;28;20223;-65
2021/03/20 04:05:34;;;;;;;3.83;2.50;;;-1.70;99.90;;;;;;5080302;28;20309;-66
2021/03/20 04:08:12;;;;;;;4.83;2.60;;;-1.80;99.90;;;;;;5095467;28;20237;-65
2021/03/20 04:10:45;;;;;;;3.53;2.20;;;-1.70;99.90;;;;;;5095672;28;20306;-65
2021/03/20 04:13:19;;;;;;;5.07;2.60;;;-1.70;99.90;;;;;;5095192;28;20290;-65
2021/03/20 04:15:55;;;;;;;4.07;2.47;;;-1.80;99.90;;;;;;5095442;28;20227;-66
2021/03/20 04:18:30;;;;;;;4.13;3.30;;;-1.90;99.90;;;;;;5095506;28;20246;-66
2021/03/20 04:21:08;;;;;;;4.10;2.70;;;-1.90;99.90;;;;;;5095201;28;20272;-65
2021/03/20 04:23:39;;;;;;;6.10;2.60;;;-1.90;99.90;;;;;;5095257;28;20195;-65
2021/03/20 04:26:13;;;;;;;4.47;2.50;;;-1.90;99.90;;;;;;5094981;28;20662;-66
2021/03/20 04:28:48;;;;;;;3.20;2.63;;;-1.90;99.90;;;;;;5094591;28;20791;-64
2021/03/20 04:31:19;;;;;;;4.07;2.47;;;-1.90;99.90;;;;;;5095017;28;20562;-66
2021/03/20 04:33:53;;;;;;;4.93;2.77;;;-2.00;99.90;;;;;;5094800;28;20627;-65
2021/03/20 04:36:25;;;;;;;3.93;2.80;;;-1.80;99.90;;;;;;5094857;28;20753;-64
2021/03/20 04:38:54;;;;;;;5.60;2.57;;;-1.80;99.90;;;;;;5094990;28;20543;-65
2021/03/20 04:41:23;;;;;;;5.30;2.63;;;-1.90;99.90;;;;;;5094894;28;20206;-66
2021/03/20 04:43:51;;;;;;;3.93;2.70;;;-1.80;99.90;;;;;;5094400;28;20339;-67
2021/03/20 04:46:22;;;;;;;3.60;2.67;;;-1.90;99.90;;;;;;5094539;28;20297;-65
2021/03/20 04:49:00;;;;;;;3.57;2.30;;;-1.80;99.90;;;;;;5094690;28;20240;-66
2021/03/20 04:51:36;;;;;;;2.87;2.30;;;-1.80;99.90;;;;;;5094713;28;20313;-65
2021/03/20 04:54:12;;;;;;;3.83;2.50;;;-1.70;99.90;;;;;;5094514;28;20374;-65
2021/03/20 04:56:44;;;;;;;4.50;2.50;;;-1.60;99.90;;;;;;5094608;28;20191;-66
2021/03/20 04:59:33;;;;;;;3.73;2.37;;;-1.50;99.90;;;;;;5093878;28;20239;-65
2021/03/20 05:02:04;;;;;;;5.20;2.30;;;-1.60;99.90;;;;;;5094217;28;20666;-66
2021/03/20 05:04:37;;;;;;;3.30;2.40;;;-1.60;99.90;;;;;;5094532;28;20193;-65
2021/03/20 05:07:05;;;;;;;3.60;2.00;;;-1.60;99.90;;;;;;5094285;28;20255;-66
2021/03/20 05:09:32;;;;;;;5.00;2.70;;;-1.70;99.90;;;;;;5094471;28;20366;-65
2021/03/20 05:12:02;;;;;;;4.10;2.23;;;-1.70;99.90;;;;;;5094096;28;20310;-66
2021/03/20 05:14:38;;;;;;;3.77;2.20;;;-1.60;99.90;;;;;;5093237;28;20302;-66
2021/03/20 05:17:09;;;;;;;3.83;2.37;;;-1.60;99.90;;;;;;5094251;28;20222;-66
2021/03/20 05:19:36;;;;;;;4.07;2.50;;;-1.50;99.90;;;;;;5094206;28;20210;-65
2021/03/20 05:22:03;;;;;;;3.67;1.80;;;-1.60;99.90;;;;;;5094059;28;20246;-66
2021/03/20 05:24:33;;;;;;;3.00;2.00;;;-1.80;99.90;;;;;;5094066;28;20200;-65
2021/03/20 05:27:01;;;;;;;4.83;2.43;;;-1.80;99.90;;;;;;5093301;28;20255;-65
2021/03/20 05:29:29;;;;;;;5.47;2.40;;;-1.90;99.90;;;;;;5093642;28;20227;-65
2021/03/20 05:31:57;;;;;;;3.77;2.30;;;-1.80;99.90;;;;;;5093853;28;20223;-66
2021/03/20 05:34:28;;;;;;;4.27;2.00;;;-1.80;99.90;;;;;;5093764;28;20234;-66
2021/03/20 05:36:54;;;;;;;2.93;2.13;;;-1.90;99.90;;;;;;5093462;28;20574;-66
2021/03/20 05:39:23;;;;;;;4.47;2.40;;;-1.90;99.90;;;;;;5093572;28;20751;-65
2021/03/20 05:42:02;;;;;;;7.13;2.63;;;-1.90;99.90;;;;;;5093449;28;20292;-66
2021/03/20 05:44:53;;;;;;;2.60;2.10;;;-1.90;99.90;;;;;;5098093;28;20284;-67
2021/03/20 05:47:32;;;;;;;3.23;2.50;;;-1.90;99.90;;;;;;5101090;28;20230;-65
2021/03/20 05:50:11;;;;;;;4.57;3.03;;;-1.90;99.90;;;;;;5095865;28;20528;-66
2021/03/20 05:53:16;;;;;;;4.57;2.43;;;-1.90;99.90;;;;;;5093881;28;20264;-65
2021/03/20 05:55:52;;;;;;;4.83;2.20;;;-1.70;99.90;;;;;;5088238;28;20285;-67
2021/03/20 05:58:45;;;;;;;4.67;2.33;;;-1.70;99.90;;;;;;5093230;28;20191;-66
2021/03/20 06:01:21;;;;;;;3.10;2.23;;;-1.50;99.90;;;;;;5093567;28;20185;-66
2021/03/20 06:04:35;;;;;;;3.20;2.30;;;-1.40;99.90;;;;;;5093047;28;20188;-66
2021/03/20 06:07:41;;;;;;;4.03;2.63;;;-1.20;99.90;;;;;;5061148;28;20227;-66
2021/03/20 06:10:55;;;;;;;5.67;2.53;;;-1.10;99.90;;;;;;5093222;28;20274;-65
2021/03/20 06:13:53;;;;;;;4.50;2.10;;;-0.90;99.90;;;;;;5029961;28;20662;-66
2021/03/20 06:16:27;;;;;;;3.23;2.00;;;-0.80;99.90;;;;;;5030198;28;20274;-66
2021/03/20 06:19:34;;;;;;;3.47;1.70;;;-0.70;99.90;;;;;;5080845;28;20223;-66
2021/03/20 06:22:33;;;;;;;3.07;1.90;;;-0.50;99.90;;;;;;5092931;28;20699;-66
2021/03/20 06:25:22;;;;;;;3.10;1.57;;;-0.30;99.90;;;;;;5093061;28;20688;-66
2021/03/20 06:27:52;;;;;;;3.00;1.50;;;-0.50;99.90;;;;;;5092124;28;20277;-65
2021/03/20 06:30:41;;;;;;;2.83;1.90;;;-0.40;99.90;;;;;;5093040;28;20301;-66
2021/03/20 06:33:23;;;;;;;2.80;1.80;;;-0.30;99.90;;;;;;5092696;28;20719;-66
2021/03/20 06:35:53;;;;;;;6.17;2.10;;;-0.40;99.90;;;;;;5092910;28;20216;-66
2021/03/20 06:38:28;;;;;;;2.10;1.60;;;-0.50;99.90;;;;;;5092894;28;20309;-66
2021/03/20 06:41:02;;;;;;;4.33;1.70;;;-0.40;99.90;;;;;;5092519;28;20215;-64
2021/03/20 06:43:51;;;;;;;3.63;2.20;;;-0.20;99.90;;;;;;5092419;28;20191;-65
2021/03/20 06:46:21;;;;;;;4.63;2.10;;;-0.10;99.90;;;;;;5092846;28;20192;-66
2021/03/20 06:48:48;;;;;;;2.37;1.60;;;-0.10;99.90;;;;;;5092844;28;20273;-66
2021/03/20 06:51:15;;;;;;;3.83;1.80;;;0.00;99.90;;;;;;5092662;28;20352;-65
2021/03/20 06:53:50;;;;;;;2.67;1.87;;;0.00;99.90;;;;;;5092090;28;20292;-66
2021/03/20 06:56:19;;;;;;;2.47;2.00;;;0.20;99.90;;;;;;5092427;28;20267;-65
2021/03/20 06:58:46;;;;;;;4.70;1.73;;;0.30;99.90;;;;;;5092187;28;20289;-66
2021/03/20 07:01:23;;;;;;;4.70;2.00;;;0.50;99.90;;;;;;5092177;28;20295;-65
2021/03/20 07:04:32;;;;;;;2.90;1.97;;;0.70;99.90;;;;;;5092693;28;20211;-64
2021/03/20 07:07:15;;;;;;;3.67;1.80;;;0.90;99.90;;;;;;5092612;28;20724;-65
2021/03/20 07:09:49;;;;;;;3.47;1.70;;;1.20;99.90;;;;;;5092248;28;20590;-65
2021/03/20 07:12:18;;;;;;;5.33;2.50;;;1.40;99.90;;;;;;5092211;28;20208;-66
2021/03/20 07:14:48;;;;;;;4.10;1.80;;;1.50;99.90;;;;;;5091801;28;20295;-65
2021/03/20 07:17:34;;;;;;;6.10;1.90;;;1.50;99.90;;;;;;5092815;28;20287;-66
2021/03/20 07:20:08;;;;;;;2.87;1.60;;;1.50;99.90;;;;;;5092586;28;20501;-66
2021/03/20 07:22:38;;;;;;;4.40;1.77;;;1.40;99.90;;;;;;5092614;28;20189;-65
2021/03/20 07:25:28;;;;;;;3.27;1.50;;;1.40;99.90;;;;;;5092542;28;20661;-65
2021/03/20 07:28:06;;;;;;;2.83;1.60;;;1.20;99.90;;;;;;5091988;28;20227;-66
2021/03/20 07:30:38;;;;;;;5.27;2.20;;;1.30;99.90;;;;;;5091976;28;20707;-65
2021/03/20 07:33:25;;;;;;;2.90;1.73;;;1.20;99.90;;;;;;5092011;28;20232;-65
2021/03/20 07:35:52;;;;;;;3.10;1.90;;;1.20;99.90;;;;;;5092395;28;20234;-65
2021/03/20 07:38:24;;;;;;;4.87;2.07;;;1.10;99.90;;;;;;5093251;28;20294;-65
2021/03/20 07:41:05;;;;;;;2.73;1.77;;;1.10;99.90;;;;;;5095450;28;20282;-65
2021/03/20 07:43:32;;;;;;;4.67;2.00;;;0.90;99.90;;;;;;5095983;28;20220;-64
2021/03/20 07:46:10;;;;;;;2.97;1.90;;;1.00;99.90;;;;;;5095981;28;20202;-65
2021/03/20 07:48:39;;;;;;;2.87;2.10;;;0.90;99.90;;;;;;5096151;28;20207;-66
2021/03/20 07:51:13;;;;;;;5.60;2.50;;;0.90;99.90;;;;;;5095655;28;20284;-66
2021/03/20 07:53:45;;;;;;;4.40;2.00;;;0.90;99.90;;;;;;5095876;28;20229;-65
2021/03/20 07:56:36;;;;;;;2.57;1.77;;;0.90;99.90;;;;;;5095809;28;20292;-66
2021/03/20 07:59:12;;;;;;;6.13;2.30;;;1.00;99.90;;;;;;5095796;28;20188;-65
2021/03/20 08:01:40;;;;;;;2.60;1.50;;;1.20;99.90;;;;;;5095410;28;20706;-66
2021/03/20 08:04:10;;;;;;;2.63;1.70;;;1.10;99.90;;;;;;5095634;28;20211;-66
2021/03/20 08:06:45;;;;;;;3.53;1.80;;;1.20;99.90;;;;;;5095360;28;20185;-67
2021/03/20 08:09:22;;;;;;;3.73;1.97;;;1.20;99.90;;;;;;5095433;28;20270;-66
2021/03/20 08:11:51;;;;;;;3.93;1.63;;;1.30;99.90;;;;;;5095251;28;20204;-64
2021/03/20 08:14:27;;;;;;;5.90;2.20;;;1.30;99.90;;;;;;5095298;28;20196;-67
2021/03/20 08:16:54;;;;;;;3.73;1.70;;;1.40;99.90;;;;;;5095257;28;20278;-66
2021/03/20 08:19:23;;;;;;;2.47;1.90;;;1.20;99.90;;;;;;5095229;28;20253;-65
2021/03/20 08:22:14;;;;;;;2.90;1.50;;;1.20;99.90;;;;;;5095499;28;20200;-65
2021/03/20 08:25:09;;;;;;;3.17;1.53;;;1.40;99.90;;;;;;5095043;28;20294;-64
2021/03/20 08:27:43;;;;;;;2.33;1.47;;;1.60;99.90;;;;;;5095408;28;20292;-65
2021/03/20 08:30:26;;;;;;;2.43;1.50;;;1.80;99.90;;;;;;5094960;28;20671;-66
2021/03/20 08:33:15;;;;;;;3.27;1.73;;;1.80;99.90;;;;;;5095094;28;20218;-65
2021/03/20 08:35:53;;;;;;;4.10;1.70;;;1.90;99.90;;;;;;5095026;28;20188;-65
2021/03/20 08:38:39;;;;;;;4.93;1.50;;;1.90;99.90;;;;;;5094873;28;20195;-65
2021/03/20 08:41:12;;;;;;;2.80;1.70;;;1.70;99.90;;;;;;5094132;28;20186;-65
2021/03/20 08:44:03;;;;;;;4.03;1.87;;;1.70;99.90;;;;;;5094822;28;20275;-64
2021/03/20 08:46:48;;;;;;;4.00;1.60;;;1.70;99.90;;;;;;5094706;28;20252;-65
2021/03/20 08:49:23;;;;;;;6.37;1.80;;;1.70;99.90;;;;;;5094079;28;20184;-65
2021/03/20 08:51:58;;;;;;;3.83;1.83;;;1.60;99.90;;;;;;5082412;28;20490;-65
2021/03/20 08:54:39;;;;;;;2.47;1.47;;;1.70;99.90;;;;;;5082135;28;20270;-65
2021/03/20 08:57:16;;;;;;;3.33;1.60;;;1.60;99.90;;;;;;5085261;28;20194;-65
2021/03/20 08:59:48;;;;;;;3.47;1.47;;;1.60;99.90;;;;;;5087166;28;20713;-65
2021/03/20 09:02:38;;;;;;;2.90;1.50;;;1.70;99.90;;;;;;5083246;28;20280;-63
2021/03/20 09:05:22;;;;;;;2.87;1.20;;;1.50;99.90;;;;;;5078807;28;20201;-64
2021/03/20 09:07:54;;;;;;;2.27;1.63;;;1.60;99.90;;;;;;5080278;28;20219;-64
2021/03/20 09:10:26;;;;;;;1.90;1.33;;;1.70;99.90;;;;;;5073359;28;20646;-65
2021/03/20 09:13:02;;;;;;;1.30;1.20;;;1.70;99.90;;;;;;5081306;28;20274;-64
2021/03/20 09:15:48;;;;;;;1.97;1.30;;;1.70;99.90;;;;;;5073587;28;20708;-65
2021/03/20 09:18:18;;;;;;;2.50;1.60;;;1.80;99.90;;;;;;5073885;28;20181;-66
2021/03/20 09:20:47;;;;;;;2.20;1.47;;;1.70;99.90;;;;;;5077314;28;20258;-65
2021/03/20 09:23:25;;;;;;;2.83;1.17;;;1.80;99.90;;;;;;5078120;28;20220;-65
2021/03/20 09:25:57;;;;;;;2.93;1.60;;;1.80;99.90;;;;;;5073757;28;20185;-66
2021/03/20 09:28:30;;;;;;;1.87;1.37;;;1.80;99.90;;;;;;5073513;28;20739;-65
2021/03/20 09:31:00;;;;;;;2.20;1.50;;;1.70;99.90;;;;;;5073635;28;20283;-65
2021/03/20 09:33:41;;;;;;;1.87;1.20;;;1.60;99.90;;;;;;5073669;28;20226;-66
2021/03/20 09:36:29;;;;;;;2.60;1.30;;;1.90;99.90;;;;;;5080936;28;20777;-55
2021/03/20 09:38:58;;;;;;;3.07;1.40;;;2.10;99.90;;;;;;5080695;28;20224;-59
2021/03/20 09:41:36;;;;;;;1.33;1.10;;;2.20;99.90;;;;;;5080962;28;20239;-60
2021/03/20 09:44:18;;;;;;;2.43;1.37;;;2.50;99.90;;;;;;5077644;28;20224;-60
2021/03/20 09:46:55;;;;;;;2.37;1.50;;;2.80;99.90;;;;;;5074066;28;20264;-65
2021/03/20 09:49:52;;;;;;;1.80;1.37;;;2.90;99.90;;;;;;5075739;28;20246;-66
2021/03/20 09:52:38;;;;;;;2.93;1.40;;;3.10;99.90;;;;;;5086771;28;20604;-65
2021/03/20 09:55:48;;;;;;;2.23;1.20;;;3.40;99.90;;;;;;5092527;28;20819;-65
2021/03/20 09:58:39;;;;;;;2.30;1.30;;;3.60;99.90;;;;;;5092885;28;20593;-65
2021/03/20 10:01:39;;;;;;;2.03;1.60;;;3.80;99.90;;;;;;5092754;28;20236;-65
2021/03/20 10:04:33;;;;;;;2.47;1.27;;;3.80;99.90;;;;;;5092901;28;20206;-65
2021/03/20 10:07:39;;;;;;;2.47;1.50;;;3.50;99.90;;;;;;5093054;28;20247;-66
2021/03/20 10:10:38;;;;;;;1.83;1.40;;;3.60;99.90;;;;;;5092369;28;20737;-65
2021/03/20 10:13:14;;;;;;;1.50;1.33;;;3.60;99.90;;;;;;5092930;28;20560;-65
2021/03/20 10:15:56;;;;;;;1.63;1.30;;;3.70;99.90;;;;;;5092815;28;20272;-65
2021/03/20 10:18:35;;;;;;;3.03;1.30;;;3.80;99.90;;;;;;5092851;28;20277;-68
2021/03/20 10:21:25;;;;;;;2.33;1.53;;;4.10;99.90;;;;;;5092972;28;20215;-67
2021/03/20 10:24:14;;;;;;;2.43;1.80;;;4.10;99.90;;;;;;5072495;28;20244;-66
2021/03/20 10:26:44;;;;;;;3.13;1.60;;;4.20;99.90;;;;;;5072400;28;20285;-66
2021/03/20 10:29:26;;;;;;;2.80;1.50;;;4.20;99.90;;;;;;5072271;28;20202;-66
2021/03/20 10:32:01;;;;;;;2.83;1.90;;;3.90;99.90;;;;;;5072014;28;20206;-66
2021/03/20 10:34:41;;;;;;;3.07;1.23;;;3.80;99.90;;;;;;5071755;28;20186;-68
2021/03/20 10:37:11;;;;;;;1.40;1.30;;;3.90;99.90;;;;;;5071394;28;20293;-68
2021/03/20 10:39:42;;;;;;;2.40;1.30;;;3.80;99.90;;;;;;5071513;28;20550;-65
2021/03/20 10:42:18;;;;;;;3.47;1.60;;;4.00;99.90;;;;;;5072676;28;20205;-64
2021/03/20 10:44:47;;;;;;;2.00;1.43;;;4.20;99.90;;;;;;5072296;28;20245;-65
2021/03/20 10:47:23;;;;;;;3.80;1.70;;;4.30;99.90;;;;;;5072279;28;20602;-65
2021/03/20 10:49:53;;;;;;;3.17;1.50;;;4.50;99.90;;;;;;5072351;28;20202;-64
2021/03/20 10:52:25;;;;;;;2.63;1.50;;;4.70;99.90;;;;;;5072219;28;20273;-65
2021/03/20 10:54:56;;;;;;;2.67;1.37;;;4.90;99.90;;;;;;5071852;28;20322;-64
2021/03/20 10:57:25;;;;;;;1.77;1.13;;;5.20;99.90;;;;;;5072036;28;20282;-65
2021/03/20 10:59:52;;;;;;;3.33;1.60;;;5.20;99.90;;;;;;5072604;28;20197;-65
2021/03/20 11:02:35;;;;;;;4.60;1.67;;;5.30;99.90;;;;;;5072380;28;20204;-66
2021/03/20 11:05:32;;;;;;;2.63;1.47;;;5.00;99.90;;;;;;5072048;28;20196;-65
2021/03/20 11:08:10;;;;;;;2.70;1.30;;;5.00;99.90;;;;;;5057431;28;20202;-63
2021/03/20 11:10:39;;;;;;;1.73;1.33;;;5.10;99.90;;;;;;5072154;28;20653;-65
2021/03/20 11:13:09;;;;;;;4.77;1.90;;;4.90;99.90;;;;;;5072574;28;20314;-64
2021/03/20 11:15:38;;;;;;;2.13;1.50;;;4.90;99.90;;;;;;5075712;28;20299;-64
2021/03/20 11:18:13;;;;;;;2.47;1.40;;;4.80;99.90;;;;;;5076189;28;20284;-64
2021/03/20 11:20:42;;;;;;;1.93;1.17;;;4.70;99.90;;;;;;5076275;28;20220;-65
2021/03/20 11:23:27;;;;;;;1.73;1.50;;;4.70;99.90;;;;;;5091703;28;20204;-65
2021/03/20 11:25:54;;;;;;;3.40;1.70;;;4.70;99.90;;;;;;5097166;28;20230;-65
2021/03/20 11:28:30;;;;;;;2.50;1.40;;;4.70;99.90;;;;;;5096500;28;20237;-65
2021/03/20 11:30:59;;;;;;;2.50;1.20;;;4.80;99.90;;;;;;5095742;28;20724;-65
2021/03/20 11:33:29;;;;;;;2.03;1.30;;;4.70;99.90;;;;;;5096056;28;20276;-65
2021/03/20 11:36:00;;;;;;;1.83;1.40;;;4.80;99.90;;;;;;5095831;28;20227;-65
2021/03/20 11:38:28;;;;;;;1.53;1.30;;;4.80;99.90;;;;;;5095825;28;20279;-62
2021/03/20 11:41:27;;;;;;;1.40;1.30;;;5.00;99.90;;;;;;5082979;28;20305;-60
2021/03/20 11:44:01;;;;;;;2.00;1.10;;;5.20;99.90;;;;;;5041561;28;20726;-60
2021/03/20 11:46:31;;;;;;;1.93;1.60;;;5.40;99.90;;;;;;5075294;28;20704;-61
2021/03/20 11:49:01;;;;;;;1.77;1.40;;;5.50;99.90;;;;;;5075429;28;20237;-60
2021/03/20 11:51:31;;;;;;;1.73;1.43;;;5.60;99.90;;;;;;5075430;28;20585;-60
2021/03/20 11:54:00;;;;;;;2.10;1.30;;;5.80;99.90;;;;;;5080118;28;20713;-60
2021/03/20 11:56:33;;;;;;;1.60;1.20;;;5.70;99.90;;;;;;5077640;28;20192;-62
2021/03/20 11:59:03;;;;;;;2.90;1.30;;;5.80;99.90;;;;;;5075438;28;20279;-60
2021/03/20 12:01:47;;;;;;;2.47;1.37;;;5.70;99.90;;;;;;5075182;28;20300;-57
2021/03/20 12:04:37;;;;;;;1.83;1.10;;;5.70;99.90;;;;;;5090215;28;21016;-61
2021/03/20 12:07:21;;;;;;;2.83;1.53;;;5.80;99.90;;;;;;5088899;28;20554;-62
2021/03/20 12:10:41;;;;;;;2.17;1.80;;;5.60;99.90;;;;;;5082318;28;20245;-60
2021/03/20 12:13:09;;;;;;;2.07;1.57;;;5.70;99.90;;;;;;5086307;28;20670;-62
2021/03/20 12:15:51;;;;;;;3.17;1.63;;;5.70;99.90;;;;;;5084454;28;20243;-61
2021/03/20 12:18:22;;;;;;;3.40;1.47;;;5.40;99.90;;;;;;5094651;28;20698;-60
2021/03/20 12:20:50;;;;;;;2.77;1.30;;;5.10;99.90;;;;;;5094640;28;20199;-60
2021/03/20 12:23:21;;;;;;;2.43;1.60;;;5.10;99.90;;;;;;5093705;28;20711;-61
2021/03/20 12:25:51;;;;;;;3.37;1.70;;;5.30;99.90;;;;;;5074650;28;20229;-60
2021/03/20 12:28:39;;;;;;;2.27;1.53;;;5.70;99.90;;;;;;5074248;28;20205;-61
2021/03/20 12:31:29;;;;;;;1.80;1.50;;;6.10;99.90;;;;;;5070501;28;20196;-61
2021/03/20 12:33:59;;;;;;;2.57;1.40;;;6.30;99.90;;;;;;5074308;28;20217;-59
2021/03/20 12:36:40;;;;;;;1.97;1.70;;;6.00;99.90;;;;;;5074224;28;20262;-61
2021/03/20 12:39:10;;;;;;;2.90;1.50;;;5.70;99.90;;;;;;5073949;28;20188;-60
2021/03/20 12:41:40;;;;;;;3.13;1.57;;;5.60;99.90;;;;;;5074152;28;20231;-60
2021/03/20 12:44:14;;;;;;;1.70;1.60;;;5.30;99.90;;;;;;5076054;28;20207;-61
2021/03/20 12:46:42;;;;;;;4.10;1.77;;;5.10;99.90;;;;;;5094732;28;20222;-61
2021/03/20 12:49:12;;;;;;;2.00;1.80;;;4.90;99.90;;;;;;5094397;28;20206;-61
2021/03/20 12:51:40;;;;;;;1.80;1.60;;;4.90;99.90;;;;;;5094432;28;20208;-59
2021/03/20 12:54:07;;;;;;;2.27;1.40;;;5.20;99.90;;;;;;5093792;28;20270;-62
2021/03/20 12:56:33;;;;;;;1.77;1.47;;;5.10;99.90;;;;;;5094228;28;20255;-62
2021/03/20 12:59:00;;;;;;;1.70;1.50;;;5.10;99.90;;;;;;5094083;28;20571;-61
2021/03/20 13:01:29;;;;;;;3.13;1.60;;;5.10;99.90;;;;;;5094028;28;20687;-61
2021/03/20 13:03:57;;;;;;;2.77;1.43;;;5.20;99.90;;;;;;5094234;28;20550;-60
2021/03/20 13:06:25;;;;;;;2.53;1.60;;;5.20;99.90;;;;;;5094149;28;20211;-60
2021/03/20 13:08:53;;;;;;;2.53;1.50;;;5.10;99.90;;;;;;5093484;28;20226;-60
2021/03/20 13:11:25;;;;;;;3.43;1.73;;;5.00;99.90;;;;;;5093748;28;20220;-61
2021/03/20 13:13:53;;;;;;;2.00;1.70;;;5.10;99.90;;;;;;5093448;28;20229;-60
2021/03/20 13:16:20;;;;;;;2.83;1.50;;;5.20;99.90;;;;;;5073641;28;20200;-61
2021/03/20 13:18:47;;;;;;;3.07;1.50;;;5.20;99.90;;;;;;5077833;28;20239;-61
2021/03/20 13:21:14;;;;;;;3.33;1.67;;;5.20;99.90;;;;;;5093663;28;20256;-60
2021/03/20 13:23:41;;;;;;;2.10;1.60;;;5.10;99.90;;;;;;5094469;28;20331;-62
2021/03/20 13:26:09;;;;;;;2.53;1.70;;;5.20;99.90;;;;;;5093885;28;20242;-62
2021/03/20 13:28:36;;;;;;;3.23;2.00;;;5.20;99.90;;;;;;5093513;28;20632;-61
2021/03/20 13:31:06;;;;;;;1.80;1.60;;;5.30;99.90;;;;;;5093131;28;20203;-61
2021/03/20 13:33:33;;;;;;;3.47;1.90;;;5.40;99.90;;;;;;5093441;28;20230;-62
2021/03/20 13:36:00;;;;;;;3.63;1.70;;;5.50;99.90;;;;;;5093298;28;20235;-61